EGLL - London / Heathrow Airport
Distance from station: E 5mi, 14km
Updated: 02/23/2018 7:50pm
Clear
Clear
 Wind from NE
Wind: NE 5 mph , 7 km/h
Temperature: 30°F , -1°C
Wind Chill: 25°F , -4°C
Dew Point: 25°F , -4°C
Humidity: 80%
Barometer: 30.12 inHg , 1020 hPa
Clouds: Clear
Visibility: 6 miles , 10 km
2018/02/24 03:50 EGLL 240350Z AUTO 04004KT 9999 NCD M01/M04 Q1020 NOSIG